OEDF/DMM METAR and TAF weather

Enter ICAO airport designator
Station Type Date Time Source
OEDF METAR 2019/08/24 17:00 UTC NOAA

OEDF 241700Z 09009KT 8000 NSC 35/26 Q1002 NOSIG


Station Type Date Time Source
OEDF Decoded METAR 2019/08/24 17:00 UTC NOAA

Station name not available
Aug 24, 2019 - 01:00 PM EDT / 2019.08.24 1700 UTC
Wind: from the E (090 degrees) at 10 MPH (9 KT):0
Visibility: 4 mile(s):0
Temperature: 95 F (35 C)
Heat index: 112.3 F (44.6 C):1
Dew Point: 78 F (26 C)
Relative Humidity: 59%
Pressure (altimeter): 29.59 in. Hg (1002 hPa)
ob: OEDF 241700Z 09009KT 8000 NSC 35/26 Q1002 NOSIG
cycle: 17

Station Type Date Time Source
OEDF TAF 2019/08/24 18:12 UTC NOAA

TAF TAF OEDF 241400Z 2418/2524 VRB03KT 8000 NSC PROB30
TEMPO 2500/2506 3000 BR
BECMG 2504/2506 15010KT

Example: see airport list